createdAt,value
2023-01-17T00:02:09.988Z,2.56
2023-01-17T00:04:56.071Z,2.58
2023-01-17T00:07:42.936Z,2.62
2023-01-17T00:10:13.232Z,2.66
2023-01-17T00:12:50.531Z,2.67
2023-01-17T00:15:20.055Z,2.71
2023-01-17T00:17:48.164Z,2.73
2023-01-17T00:20:45.846Z,2.75
2023-01-17T00:23:38.359Z,2.76
2023-01-17T00:26:12.557Z,2.76
2023-01-17T00:28:42.029Z,2.78
2023-01-17T00:31:12.984Z,2.77
2023-01-17T00:33:40.293Z,2.72
2023-01-17T00:36:09.171Z,2.66
2023-01-17T00:38:38.665Z,2.65
2023-01-17T00:41:10.871Z,2.65
2023-01-17T00:43:57.175Z,2.66
2023-01-17T00:46:43.300Z,2.70
2023-01-17T00:49:29.351Z,2.73
2023-01-17T00:52:15.273Z,2.76
2023-01-17T00:55:00.982Z,2.76
2023-01-17T00:57:46.912Z,2.74
2023-01-17T01:00:33.364Z,2.73
2023-01-17T01:03:19.236Z,2.74
2023-01-17T01:06:05.112Z,2.72
2023-01-17T01:08:51.155Z,2.71
2023-01-17T01:11:39.477Z,2.70
2023-01-17T01:14:28.873Z,2.70
2023-01-17T01:17:15.115Z,2.72
2023-01-17T01:20:01.040Z,2.77
2023-01-17T01:22:46.789Z,2.73
2023-01-17T01:25:32.562Z,2.69
2023-01-17T01:28:29.585Z,2.66
2023-01-17T01:31:18.809Z,2.67
2023-01-17T01:33:46.147Z,2.66
2023-01-17T01:36:13.782Z,2.67
2023-01-17T01:38:41.077Z,2.67
2023-01-17T01:41:08.760Z,2.69
2023-01-17T01:43:55.970Z,2.71
2023-01-17T01:46:39.546Z,2.75
2023-01-17T01:49:20.723Z,2.76
2023-01-17T01:51:54.581Z,2.76
2023-01-17T01:54:47.560Z,2.77
2023-01-17T01:57:18.472Z,2.75
2023-01-17T01:59:52.698Z,2.72
2023-01-17T02:02:20.224Z,2.73
2023-01-17T02:04:48.441Z,2.74
2023-01-17T02:07:23.972Z,2.79
2023-01-17T02:10:16.599Z,2.82
2023-01-17T02:12:47.025Z,2.78
2023-01-17T02:15:14.469Z,2.72
2023-01-17T02:17:53.874Z,2.63
2023-01-17T02:21:03.489Z,2.56
2023-01-17T02:23:38.422Z,2.57
2023-01-17T02:26:17.853Z,2.56
2023-01-17T02:29:18.987Z,2.56
2023-01-17T02:31:52.496Z,2.53
2023-01-17T02:34:28.717Z,2.56
2023-01-17T02:37:03.916Z,2.58
2023-01-17T02:39:40.415Z,2.63
2023-01-17T02:42:16.561Z,2.66
2023-01-17T02:44:44.900Z,2.69
2023-01-17T02:47:22.767Z,2.73
2023-01-17T02:49:52.780Z,2.75
2023-01-17T02:52:35.301Z,2.80
2023-01-17T02:55:21.213Z,2.83
2023-01-17T02:58:13.545Z,2.85
2023-01-17T03:00:49.054Z,2.86
2023-01-17T03:03:22.373Z,2.87
2023-01-17T03:05:51.561Z,2.88
2023-01-17T03:08:19.784Z,2.91
2023-01-17T03:10:47.399Z,2.92
2023-01-17T03:13:14.742Z,2.96
2023-01-17T03:15:42.127Z,2.99
2023-01-17T03:18:14.299Z,3.00
2023-01-17T03:20:41.982Z,3.02
2023-01-17T03:23:09.292Z,3.00
2023-01-17T03:25:36.683Z,3.01
2023-01-17T03:28:04.282Z,3.03
2023-01-17T03:30:31.616Z,3.05
2023-01-17T03:32:59.009Z,3.07
2023-01-17T03:35:26.334Z,3.07
2023-01-17T03:37:53.719Z,3.07
2023-01-17T03:40:20.920Z,3.08
2023-01-17T03:42:48.181Z,3.07
2023-01-17T03:45:16.286Z,3.07
2023-01-17T03:47:43.622Z,3.08
2023-01-17T03:50:12.409Z,3.06
2023-01-17T03:52:39.831Z,3.04
2023-01-17T03:55:07.667Z,2.99
2023-01-17T03:57:34.873Z,2.92
2023-01-17T04:00:02.242Z,2.87
2023-01-17T04:02:34.534Z,2.80
2023-01-17T04:05:01.847Z,2.78
2023-01-17T04:07:29.164Z,2.77
2023-01-17T04:09:56.518Z,2.76
2023-01-17T04:12:23.809Z,2.76
2023-01-17T04:14:51.079Z,2.73
2023-01-17T04:17:20.263Z,2.64
2023-01-17T04:19:47.703Z,2.48
2023-01-17T04:22:15.266Z,2.41
2023-01-17T04:24:42.520Z,2.33
2023-01-17T04:27:14.283Z,2.28
2023-01-17T04:29:41.680Z,2.25
2023-01-17T04:32:09.995Z,2.27
2023-01-17T04:34:37.287Z,2.31
2023-01-17T04:37:04.571Z,2.33
2023-01-17T04:39:31.797Z,2.39
2023-01-17T04:41:59.187Z,2.41
2023-01-17T04:44:26.751Z,2.42
2023-01-17T04:46:54.045Z,2.35
2023-01-17T04:49:21.316Z,2.29
2023-01-17T04:51:48.667Z,2.26
2023-01-17T04:54:15.963Z,2.22
2023-01-17T04:56:44.234Z,2.20
2023-01-17T04:59:11.483Z,2.16
2023-01-17T05:01:38.779Z,2.11
2023-01-17T05:04:06.100Z,2.07
2023-01-17T05:06:33.620Z,2.04
2023-01-17T05:09:02.833Z,2.01
2023-01-17T05:11:30.318Z,1.97
2023-01-17T05:13:57.746Z,1.93
2023-01-17T05:16:25.287Z,1.92
2023-01-17T05:18:56.532Z,1.90
2023-01-17T05:21:24.039Z,1.89
2023-01-17T05:23:51.234Z,1.85
2023-01-17T05:26:18.629Z,1.83
2023-01-17T05:28:45.868Z,1.83
2023-01-17T05:31:13.288Z,1.84
2023-01-17T05:33:40.627Z,1.84
2023-01-17T05:36:08.419Z,1.84
2023-01-17T05:38:36.024Z,1.84
2023-01-17T05:41:05.145Z,1.85
2023-01-17T05:43:32.433Z,1.84
2023-01-17T05:45:59.786Z,1.82
2023-01-17T05:48:27.276Z,1.79
2023-01-17T05:50:54.543Z,1.75
2023-01-17T05:53:21.819Z,1.71
2023-01-17T05:55:49.932Z,1.69
2023-01-17T05:58:20.087Z,1.63
2023-01-17T06:00:48.708Z,1.56
2023-01-17T06:03:16.219Z,1.52
2023-01-17T06:05:44.975Z,1.49
2023-01-17T06:08:12.311Z,1.50
2023-01-17T06:10:39.778Z,1.50
2023-01-17T06:13:13.666Z,1.51
2023-01-17T06:15:41.580Z,1.48
2023-01-17T06:18:11.711Z,1.45
2023-01-17T06:20:39.675Z,1.43
2023-01-17T06:23:10.490Z,1.40
2023-01-17T06:25:45.730Z,1.39
2023-01-17T06:28:18.680Z,1.34
2023-01-17T06:30:46.086Z,1.30
2023-01-17T06:33:13.855Z,1.27
2023-01-17T06:35:49.127Z,1.23
2023-01-17T06:38:16.711Z,1.19
2023-01-17T06:40:44.102Z,1.16
2023-01-17T06:43:11.346Z,1.10
2023-01-17T06:45:38.623Z,1.06
2023-01-17T06:48:06.201Z,1.02
2023-01-17T06:50:34.253Z,0.98
2023-01-17T06:53:05.311Z,0.93
2023-01-17T06:55:34.096Z,0.85
2023-01-17T06:58:02.969Z,0.80
2023-01-17T07:00:31.866Z,0.74
2023-01-17T07:02:59.243Z,0.69
2023-01-17T07:05:28.447Z,0.66
2023-01-17T07:07:58.667Z,0.62
2023-01-17T07:10:26.008Z,0.61
2023-01-17T07:12:58.673Z,0.56
2023-01-17T07:15:25.919Z,0.53
2023-01-17T07:17:53.244Z,0.49
2023-01-17T07:20:20.724Z,0.47
2023-01-17T07:22:48.113Z,0.44
2023-01-17T07:25:15.502Z,0.43
2023-01-17T07:27:42.805Z,0.42
2023-01-17T07:30:11.027Z,0.42
2023-01-17T07:32:38.559Z,0.41
2023-01-17T07:35:06.873Z,0.42
2023-01-17T07:37:34.075Z,0.42
2023-01-17T07:40:02.721Z,0.38
2023-01-17T07:42:29.940Z,0.37
2023-01-17T07:44:57.279Z,0.36
2023-01-17T07:47:24.912Z,0.37
2023-01-17T07:49:52.366Z,0.38
2023-01-17T07:52:19.598Z,0.39
2023-01-17T07:54:46.909Z,0.41
2023-01-17T07:57:14.204Z,0.41
2023-01-17T07:59:41.614Z,0.43
2023-01-17T08:02:18.036Z,0.47
2023-01-17T08:04:46.258Z,0.52
2023-01-17T08:07:14.209Z,0.60
2023-01-17T08:09:43.638Z,0.69
2023-01-17T08:12:10.884Z,0.83
2023-01-17T08:14:38.082Z,0.97
2023-01-17T08:17:14.558Z,1.09
2023-01-17T08:19:42.085Z,1.17
2023-01-17T08:22:09.436Z,1.24
2023-01-17T08:24:39.431Z,1.31
2023-01-17T08:27:08.931Z,1.34
2023-01-17T08:29:37.293Z,1.38
2023-01-17T08:32:04.813Z,1.44
2023-01-17T08:34:34.777Z,1.52
2023-01-17T08:37:02.042Z,1.65
2023-01-17T08:39:29.313Z,1.74
2023-01-17T08:41:57.467Z,1.85
2023-01-17T08:44:24.872Z,1.89
2023-01-17T08:46:52.275Z,1.89
2023-01-17T08:49:19.734Z,1.86
2023-01-17T08:51:47.062Z,1.81
2023-01-17T08:54:16.491Z,1.74
2023-01-17T08:56:43.868Z,1.71
2023-01-17T08:59:13.142Z,1.69
2023-01-17T09:01:46.191Z,1.69
2023-01-17T09:04:15.000Z,1.74
2023-01-17T09:06:47.867Z,1.77
2023-01-17T09:09:18.577Z,1.77
2023-01-17T09:11:45.919Z,1.79
2023-01-17T09:14:13.578Z,1.83
2023-01-17T09:16:42.537Z,1.92
2023-01-17T09:19:10.370Z,2.03
2023-01-17T09:21:38.923Z,2.17
2023-01-17T09:24:06.488Z,2.29
2023-01-17T09:26:35.371Z,2.43
2023-01-17T09:29:02.997Z,2.58
2023-01-17T09:31:30.373Z,2.73
2023-01-17T09:33:58.818Z,2.82
2023-01-17T09:36:29.099Z,2.86
2023-01-17T09:38:58.113Z,2.85
2023-01-17T09:41:51.805Z,2.83
2023-01-17T09:44:26.129Z,2.76
2023-01-17T09:46:59.262Z,2.70
2023-01-17T09:49:35.458Z,2.65
2023-01-17T09:52:04.901Z,2.66
2023-01-17T09:54:47.802Z,2.69
2023-01-17T09:57:28.008Z,2.64
2023-01-17T10:00:19.855Z,2.65
2023-01-17T10:03:09.595Z,2.73
2023-01-17T10:05:55.527Z,2.81
2023-01-17T10:08:22.725Z,2.84
2023-01-17T10:11:21.782Z,2.82
2023-01-17T10:14:04.586Z,2.76
2023-01-17T10:16:31.832Z,2.79
2023-01-17T10:19:13.806Z,2.90
2023-01-17T10:22:10.258Z,3.01
2023-01-17T10:25:13.097Z,3.16
2023-01-17T10:27:57.912Z,3.26
2023-01-17T10:30:46.099Z,3.26
2023-01-17T10:33:23.273Z,3.26
2023-01-17T10:35:57.103Z,3.28
2023-01-17T10:38:30.049Z,3.28
2023-01-17T10:41:02.607Z,3.21
2023-01-17T10:43:35.765Z,3.08
2023-01-17T10:46:03.842Z,2.98
2023-01-17T10:48:34.150Z,2.91
2023-01-17T10:51:20.476Z,2.82
2023-01-17T10:53:53.945Z,2.73
2023-01-17T10:56:25.563Z,2.62
2023-01-17T10:59:23.610Z,2.60
2023-01-17T11:01:51.382Z,2.58
2023-01-17T11:04:30.899Z,2.53
2023-01-17T11:07:28.424Z,2.55
2023-01-17T11:09:58.033Z,2.63
2023-01-17T11:12:45.186Z,2.68
2023-01-17T11:15:12.412Z,2.63
2023-01-17T11:18:00.256Z,2.63
2023-01-17T11:21:09.572Z,2.63
2023-01-17T11:23:38.357Z,2.55
2023-01-17T11:26:10.237Z,2.48
2023-01-17T11:28:39.903Z,2.43
2023-01-17T11:31:24.513Z,2.46
2023-01-17T11:34:08.103Z,2.53
2023-01-17T11:36:35.606Z,2.61
2023-01-17T11:39:22.496Z,2.67
2023-01-17T11:41:51.066Z,2.79
2023-01-17T11:44:32.952Z,2.91
2023-01-17T11:47:19.380Z,3.06
2023-01-17T11:49:49.050Z,3.18
2023-01-17T11:52:33.693Z,3.30
2023-01-17T11:55:02.510Z,3.35
2023-01-17T11:57:50.657Z,3.47
2023-01-17T12:00:24.041Z,3.54
2023-01-17T12:03:30.214Z,3.53
2023-01-17T12:06:08.490Z,3.45
2023-01-17T12:08:54.515Z,3.43
2023-01-17T12:11:30.830Z,3.47
2023-01-17T12:14:23.828Z,3.45
2023-01-17T12:17:16.055Z,3.45
2023-01-17T12:20:05.125Z,3.49
2023-01-17T12:22:44.084Z,3.56
2023-01-17T12:25:34.224Z,3.60
2023-01-17T12:28:18.861Z,3.62
2023-01-17T12:31:13.532Z,3.61
2023-01-17T12:34:18.921Z,3.61
2023-01-17T12:36:52.209Z,3.64
2023-01-17T12:39:26.508Z,3.66
2023-01-17T12:42:14.013Z,3.64
2023-01-17T12:45:00.369Z,3.62
2023-01-17T12:47:27.988Z,3.62
2023-01-17T12:50:04.213Z,3.65
2023-01-17T12:52:59.364Z,3.67
2023-01-17T12:55:54.832Z,3.71
2023-01-17T12:58:29.276Z,3.75
2023-01-17T13:01:04.695Z,3.79
2023-01-17T13:03:48.187Z,3.80
2023-01-17T13:06:40.962Z,3.78
2023-01-17T13:09:13.670Z,3.80
2023-01-17T13:11:49.812Z,3.77
2023-01-17T13:14:17.369Z,3.77
2023-01-17T13:16:54.740Z,3.79
2023-01-17T13:19:49.021Z,3.73
2023-01-17T13:22:21.973Z,3.72
2023-01-17T13:25:13.761Z,3.77
2023-01-17T13:27:53.901Z,3.82
2023-01-17T13:30:48.219Z,3.87
2023-01-17T13:33:34.284Z,3.91
2023-01-17T13:36:40.158Z,3.93
2023-01-17T13:39:07.460Z,3.95
2023-01-17T13:41:55.021Z,3.96
2023-01-17T13:44:27.928Z,3.95
2023-01-17T13:47:01.118Z,3.93
2023-01-17T13:49:28.520Z,3.90
2023-01-17T13:52:19.023Z,3.87
2023-01-17T13:54:57.157Z,3.86
2023-01-17T13:57:30.134Z,3.88
2023-01-17T14:00:00.934Z,3.88
2023-01-17T14:02:38.953Z,3.86
2023-01-17T14:05:23.947Z,3.82
2023-01-17T14:08:05.144Z,3.78
2023-01-17T14:10:47.846Z,3.71
2023-01-17T14:13:38.500Z,3.65
2023-01-17T14:16:25.498Z,3.63
2023-01-17T14:18:54.384Z,3.62
2023-01-17T14:21:24.359Z,3.62
2023-01-17T14:24:00.587Z,3.60
2023-01-17T14:26:36.858Z,3.62
2023-01-17T14:29:42.487Z,3.63
2023-01-17T14:32:13.176Z,3.64
2023-01-17T14:34:40.745Z,3.63
2023-01-17T14:37:40.497Z,3.64
2023-01-17T14:40:35.983Z,3.63
2023-01-17T14:43:07.791Z,3.64
2023-01-17T14:45:36.498Z,3.64
2023-01-17T14:48:06.915Z,3.66
2023-01-17T14:50:39.899Z,3.63
2023-01-17T14:53:13.466Z,3.62
2023-01-17T14:55:53.004Z,3.60
2023-01-17T14:58:27.985Z,3.59
2023-01-17T15:01:13.835Z,3.57
2023-01-17T15:03:48.844Z,3.53
2023-01-17T15:06:22.473Z,3.55
2023-01-17T15:08:54.875Z,3.54
2023-01-17T15:11:31.538Z,3.51
2023-01-17T15:14:05.793Z,3.45
2023-01-17T15:16:38.305Z,3.39
2023-01-17T15:19:14.246Z,3.32
2023-01-17T15:21:44.011Z,3.25
2023-01-17T15:24:28.097Z,3.17
2023-01-17T15:26:55.973Z,3.09
2023-01-17T15:29:26.885Z,3.01
2023-01-17T15:31:58.351Z,2.91
2023-01-17T15:34:32.438Z,2.79
2023-01-17T15:37:19.872Z,2.67
2023-01-17T15:39:48.504Z,2.58
2023-01-17T15:42:26.255Z,2.47
2023-01-17T15:44:56.574Z,2.37
2023-01-17T15:47:29.798Z,2.27
2023-01-17T15:49:57.866Z,2.18
2023-01-17T15:52:25.393Z,2.11
2023-01-17T15:54:58.709Z,2.05
2023-01-17T15:57:29.565Z,1.98
2023-01-17T16:00:21.336Z,1.92
2023-01-17T16:02:55.468Z,1.83
2023-01-17T16:05:28.251Z,1.76
2023-01-17T16:07:57.869Z,1.69
2023-01-17T16:10:28.852Z,1.64
2023-01-17T16:12:59.134Z,1.58
2023-01-17T16:15:28.780Z,1.52
2023-01-17T16:18:04.299Z,1.46
2023-01-17T16:20:39.960Z,1.42
2023-01-17T16:23:11.721Z,1.37
2023-01-17T16:25:39.127Z,1.34
2023-01-17T16:28:07.349Z,1.31
2023-01-17T16:30:34.655Z,1.27
2023-01-17T16:33:03.904Z,1.22
2023-01-17T16:35:34.074Z,1.19
2023-01-17T16:38:07.065Z,1.15
2023-01-17T16:40:40.478Z,1.13
2023-01-17T16:43:07.877Z,1.10
2023-01-17T16:45:47.197Z,1.07
2023-01-17T16:48:16.019Z,1.04
2023-01-17T16:50:52.503Z,1.01
2023-01-17T16:53:24.675Z,0.98
2023-01-17T16:55:55.457Z,0.96
2023-01-17T16:58:23.041Z,0.93
2023-01-17T17:00:50.540Z,0.90
2023-01-17T17:03:20.187Z,0.85
2023-01-17T17:06:00.555Z,0.80
2023-01-17T17:08:29.530Z,0.75
2023-01-17T17:11:13.279Z,0.72
2023-01-17T17:13:46.191Z,0.69
2023-01-17T17:16:32.890Z,0.68
2023-01-17T17:19:06.414Z,0.64
2023-01-17T17:21:35.658Z,0.62
2023-01-17T17:24:03.963Z,0.60
2023-01-17T17:26:34.978Z,0.61
2023-01-17T17:29:03.769Z,0.58
2023-01-17T17:31:31.167Z,0.58
2023-01-17T17:34:03.363Z,0.54
2023-01-17T17:36:31.376Z,0.54
2023-01-17T17:38:58.864Z,0.52
2023-01-17T17:41:29.333Z,0.50
2023-01-17T17:43:57.085Z,0.50
2023-01-17T17:46:25.857Z,0.48
2023-01-17T17:48:58.579Z,0.46
2023-01-17T17:51:48.069Z,0.44
2023-01-17T17:54:17.361Z,0.41
2023-01-17T17:56:50.445Z,0.36
2023-01-17T17:59:21.096Z,0.33
2023-01-17T18:01:49.114Z,0.32
2023-01-17T18:04:17.082Z,0.31
2023-01-17T18:06:45.172Z,0.28
2023-01-17T18:09:13.486Z,0.27
2023-01-17T18:11:42.745Z,0.27
2023-01-17T18:14:15.019Z,0.24
2023-01-17T18:16:43.942Z,0.21
2023-01-17T18:19:18.461Z,0.19
2023-01-17T18:21:45.993Z,0.16
2023-01-17T18:24:16.892Z,0.15
2023-01-17T18:26:57.286Z,0.12
2023-01-17T18:29:27.001Z,0.11
2023-01-17T18:31:54.869Z,0.09
2023-01-17T18:34:27.014Z,0.10
2023-01-17T18:36:55.703Z,0.09
2023-01-17T18:39:25.585Z,0.08
2023-01-17T18:41:54.012Z,0.09
2023-01-17T18:44:22.687Z,0.06
2023-01-17T18:46:51.373Z,0.05
2023-01-17T18:49:19.461Z,0.06
2023-01-17T18:51:50.984Z,0.05
2023-01-17T18:54:20.433Z,0.04
2023-01-17T18:56:48.216Z,0.03
2023-01-17T18:59:18.666Z,0.03
2023-01-17T19:01:46.222Z,0.03
2023-01-17T19:04:15.635Z,0.02
2023-01-17T19:06:48.323Z,0.02
2023-01-17T19:09:20.078Z,0.03
2023-01-17T19:11:48.067Z,0.02
2023-01-17T19:14:22.072Z,0.02
2023-01-17T19:16:49.909Z,0.02
2023-01-17T19:19:17.597Z,0.01
2023-01-17T19:21:45.331Z,-0.01
2023-01-17T19:24:13.322Z,-0.02
2023-01-17T19:26:42.055Z,-0.03
2023-01-17T19:29:12.207Z,-0.05
2023-01-17T19:31:43.759Z,-0.06
2023-01-17T19:34:14.261Z,-0.08
2023-01-17T19:36:42.531Z,-0.10
2023-01-17T19:39:10.571Z,-0.11
2023-01-17T19:41:43.224Z,-0.12
2023-01-17T19:44:12.844Z,-0.13
2023-01-17T19:46:40.352Z,-0.15
2023-01-17T19:49:09.020Z,-0.14
2023-01-17T19:51:36.947Z,-0.17
2023-01-17T19:54:06.485Z,-0.18
2023-01-17T19:56:35.521Z,-0.17
2023-01-17T19:59:03.214Z,-0.17
2023-01-17T20:01:34.891Z,-0.18
2023-01-17T20:04:03.377Z,-0.20
2023-01-17T20:06:34.324Z,-0.19
2023-01-17T20:09:03.192Z,-0.20
2023-01-17T20:11:30.668Z,-0.20
2023-01-17T20:14:00.116Z,-0.20
2023-01-17T20:16:38.485Z,-0.21
2023-01-17T20:19:06.629Z,-0.21
2023-01-17T20:21:34.529Z,-0.21
2023-01-17T20:24:05.204Z,-0.21
2023-01-17T20:26:34.935Z,-0.22
2023-01-17T20:29:12.965Z,-0.23
2023-01-17T20:31:42.807Z,-0.24
2023-01-17T20:34:14.106Z,-0.26
2023-01-17T20:36:55.999Z,-0.28
2023-01-17T20:39:23.382Z,-0.29
2023-01-17T20:41:51.676Z,-0.34
2023-01-17T20:44:19.667Z,-0.36
2023-01-17T20:46:50.682Z,-0.38
2023-01-17T20:49:19.694Z,-0.42
2023-01-17T20:51:47.384Z,-0.44
2023-01-17T20:54:17.868Z,-0.46
2023-01-17T20:56:47.629Z,-0.49
2023-01-17T20:59:18.519Z,-0.52
2023-01-17T21:01:46.304Z,-0.55
2023-01-17T21:04:14.820Z,-0.57
2023-01-17T21:06:43.407Z,-0.60
2023-01-17T21:09:13.244Z,-0.60
2023-01-17T21:11:40.588Z,-0.60
2023-01-17T21:14:08.301Z,-0.62
2023-01-17T21:16:36.945Z,-0.64
2023-01-17T21:19:04.532Z,-0.63
2023-01-17T21:21:32.262Z,-0.64
2023-01-17T21:24:05.740Z,-0.67
2023-01-17T21:26:33.742Z,-0.69
2023-01-17T21:29:02.071Z,-0.67
2023-01-17T21:31:35.875Z,-0.67
2023-01-17T21:34:10.290Z,-0.66
2023-01-17T21:36:43.324Z,-0.66
2023-01-17T21:39:13.741Z,-0.64
2023-01-17T21:41:42.172Z,-0.64
2023-01-17T21:44:15.388Z,-0.64
2023-01-17T21:46:45.325Z,-0.64
2023-01-17T21:49:12.825Z,-0.65
2023-01-17T21:51:53.151Z,-0.67
2023-01-17T21:54:47.265Z,-0.70
2023-01-17T21:57:36.956Z,-0.71
2023-01-17T22:00:07.172Z,-0.72
2023-01-17T22:02:48.287Z,-0.74
2023-01-17T22:05:19.740Z,-0.73
2023-01-17T22:08:06.492Z,-0.74
2023-01-17T22:10:44.614Z,-0.74
2023-01-17T22:13:14.515Z,-0.75
2023-01-17T22:15:42.520Z,-0.77
2023-01-17T22:18:12.073Z,-0.79
2023-01-17T22:20:43.648Z,-0.78
2023-01-17T22:23:11.960Z,-0.79
2023-01-17T22:25:40.477Z,-0.77
2023-01-17T22:28:08.075Z,-0.77
2023-01-17T22:30:35.474Z,-0.79
2023-01-17T22:33:03.339Z,-0.80
2023-01-17T22:35:30.896Z,-0.80
2023-01-17T22:38:00.480Z,-0.82
2023-01-17T22:40:28.493Z,-0.84
2023-01-17T22:42:56.329Z,-0.86
2023-01-17T22:45:25.918Z,-0.87
2023-01-17T22:47:53.503Z,-0.90
2023-01-17T22:50:20.931Z,-0.91
2023-01-17T22:52:48.399Z,-0.96
2023-01-17T22:55:18.287Z,-0.99
2023-01-17T22:57:46.824Z,-1.01
2023-01-17T23:00:14.786Z,-1.04
2023-01-17T23:02:42.690Z,-1.06
2023-01-17T23:05:10.829Z,-1.08
2023-01-17T23:07:43.759Z,-1.11
2023-01-17T23:10:13.869Z,-1.12
2023-01-17T23:12:42.538Z,-1.14
2023-01-17T23:15:28.349Z,-1.17
2023-01-17T23:18:14.207Z,-1.18
2023-01-17T23:20:41.559Z,-1.20
2023-01-17T23:23:10.977Z,-1.18
2023-01-17T23:25:38.292Z,-1.20
2023-01-17T23:28:11.443Z,-1.21
2023-01-17T23:30:42.975Z,-1.22
2023-01-17T23:33:15.362Z,-1.22
2023-01-17T23:35:45.334Z,-1.24
2023-01-17T23:38:26.672Z,-1.24
2023-01-17T23:41:19.513Z,-1.25
2023-01-17T23:43:52.036Z,-1.26
2023-01-17T23:46:19.323Z,-1.27
2023-01-17T23:48:46.867Z,-1.29
2023-01-17T23:51:14.228Z,-1.29
2023-01-17T23:53:41.908Z,-1.28
2023-01-17T23:56:19.632Z,-1.30
2023-01-17T23:58:46.918Z,-1.31
